Violet, Louisiana
Current Conditions -  °F | °C
As of 7:55 PM on Friday 28 Nov 2014 (Local Time) from KNBG Reporting Station
Few Clouds Few Clouds  
Wind Chill: 44°   Ceiling: Unl
Heat Index: 44°   Visibility: 10mi
Dew Point: 41°   Wind: 0mph
Humidity: 89%   Direction: NA
Pressure: 30.3"   Gusts: NA
Location:  29.9°N, 89.9°W
Report Text: KNBG 290155Z 00000KT 10SM FEW250 07/05 A3030 RMK AO2 SLP259 T00670050 $
Loading
Personal Weather Stations






























Interactive Weather Map New forecast layout! Learn more

10-Day Weather Forecast

Advertisements
Track Severe Weather on mobile